Time;durP1;ratioP1;P1;durP2;ratioP2;P2;SDS_P1;SDS_P2;PMS_P1;PMS_P2;Temp;Humidity;BMP_temperature;BMP_pressure;BME280_temperature;BME280_humidity;BME280_pressure;Samples;Min_cycle;Max_cycle;Signal;HPM_P1;HPM_P2
2022/03/12 00:00:21;;;;;;;33.80;17.73;;;-0.60;92.50;;;;;;4990726;28;20030;-73
2022/03/12 00:02:50;;;;;;;18.77;10.00;;;-0.60;92.70;;;;;;4973173;28;20499;-72
2022/03/12 00:05:15;;;;;;;13.27;8.53;;;-0.70;92.70;;;;;;4990423;28;20153;-73
2022/03/12 00:07:42;;;;;;;14.07;8.20;;;-0.70;92.70;;;;;;4990484;28;20062;-73
2022/03/12 00:10:13;;;;;;;10.77;6.30;;;-0.60;92.60;;;;;;4990273;28;20076;-72
2022/03/12 00:12:39;;;;;;;16.57;7.30;;;-0.60;92.60;;;;;;4990865;28;20038;-72
2022/03/12 00:15:09;;;;;;;11.47;6.97;;;-0.70;92.60;;;;;;4989508;28;20026;-73
2022/03/12 00:17:37;;;;;;;12.63;6.60;;;-0.70;92.90;;;;;;4989408;28;20427;-73
2022/03/12 00:20:12;;;;;;;12.87;6.90;;;-0.70;93.00;;;;;;4990218;28;20026;-73
2022/03/12 00:22:45;;;;;;;9.05;4.75;;;-0.70;93.10;;;;;;4990507;28;20041;-72
2022/03/12 00:25:11;;;;;;;11.00;6.23;;;-0.80;93.30;;;;;;4990530;28;20030;-72
2022/03/12 00:27:41;;;;;;;16.13;6.83;;;-0.80;93.20;;;;;;4989280;28;20327;-77
2022/03/12 00:30:11;;;;;;;12.90;7.43;;;-0.80;93.20;;;;;;4993608;28;20029;-77
2022/03/12 00:32:38;;;;;;;11.03;6.47;;;-0.80;93.30;;;;;;4993299;28;20030;-77
2022/03/12 00:35:05;;;;;;;13.67;7.53;;;-0.80;93.40;;;;;;4993416;28;20026;-77
2022/03/12 00:37:30;;;;;;;17.13;6.83;;;-0.80;93.50;;;;;;4993454;28;20113;-77
2022/03/12 00:39:56;;;;;;;12.70;6.57;;;-0.80;93.40;;;;;;4993028;28;20113;-77
2022/03/12 00:42:21;;;;;;;11.90;6.90;;;-0.80;93.40;;;;;;4993597;28;20030;-77
2022/03/12 00:44:47;;;;;;;13.90;7.03;;;-0.90;93.60;;;;;;4993208;28;20041;-77
2022/03/12 00:47:13;;;;;;;12.43;7.10;;;-0.90;93.90;;;;;;4975797;28;20102;-77
2022/03/12 00:49:39;;;;;;;9.53;6.20;;;-1.00;94.00;;;;;;4993203;28;20060;-77
2022/03/12 00:52:05;;;;;;;14.33;7.60;;;-1.00;94.10;;;;;;4993202;28;20054;-78
2022/03/12 00:54:31;;;;;;;11.63;6.93;;;-0.90;94.10;;;;;;4992836;28;20030;-77
2022/03/12 00:56:56;;;;;;;12.33;6.33;;;-1.00;94.10;;;;;;4991871;28;20034;-77
2022/03/12 00:59:22;;;;;;;14.37;7.40;;;-1.00;94.10;;;;;;4991627;28;20026;-77
2022/03/12 01:01:47;;;;;;;10.43;6.37;;;-1.00;94.60;;;;;;4975693;28;20027;-77
2022/03/12 01:04:13;;;;;;;13.13;6.07;;;-1.10;94.90;;;;;;4993028;28;20034;-77
2022/03/12 01:06:39;;;;;;;9.83;6.10;;;-1.10;94.90;;;;;;4992564;28;20130;-78
2022/03/12 01:09:05;;;;;;;14.30;6.27;;;-1.20;94.80;;;;;;4992697;28;20052;-78
2022/03/12 01:11:30;;;;;;;9.47;6.03;;;-1.20;94.80;;;;;;4991367;28;20033;-77
2022/03/12 01:13:56;;;;;;;12.83;7.20;;;-1.20;95.20;;;;;;4992411;28;20097;-77
2022/03/12 01:16:22;;;;;;;10.87;6.63;;;-1.20;95.20;;;;;;4992677;28;20070;-78
2022/03/12 01:18:48;;;;;;;13.40;6.53;;;-1.30;95.20;;;;;;4993079;28;20019;-77
2022/03/12 01:21:17;;;;;;;12.77;6.83;;;-1.30;95.30;;;;;;4992824;28;20384;-77
2022/03/12 01:23:44;;;;;;;10.37;6.43;;;-1.30;95.30;;;;;;4986585;28;20092;-77
2022/03/12 01:26:11;;;;;;;11.80;6.73;;;-1.30;95.40;;;;;;4982032;28;20030;-78
2022/03/12 01:28:37;;;;;;;10.40;6.17;;;-1.30;95.50;;;;;;4992343;28;20037;-77
2022/03/12 01:31:04;;;;;;;10.87;6.73;;;-1.30;95.70;;;;;;4992675;28;20026;-76
2022/03/12 01:33:29;;;;;;;11.70;6.53;;;-1.40;95.70;;;;;;4992636;28;20097;-75
2022/03/12 01:35:56;;;;;;;10.73;6.40;;;-1.40;95.60;;;;;;4992230;28;20109;-75
2022/03/12 01:38:31;;;;;;;14.00;6.97;;;-1.40;95.60;;;;;;4992383;28;20018;-75
2022/03/12 01:40:57;;;;;;;11.15;6.13;;;-1.30;95.60;;;;;;4991736;28;20030;-75
2022/03/12 01:43:26;;;;;;;12.60;6.87;;;-1.30;95.50;;;;;;4992227;28;20531;-75
2022/03/12 01:45:51;;;;;;;14.37;6.40;;;-1.30;95.50;;;;;;4992109;28;20034;-76
2022/03/12 01:48:17;;;;;;;10.77;6.07;;;-1.40;95.80;;;;;;4992010;28;20026;-76
2022/03/12 01:50:43;;;;;;;13.13;6.10;;;-1.40;95.90;;;;;;4991653;28;20033;-76
2022/03/12 01:53:10;;;;;;;11.53;6.27;;;-1.40;96.00;;;;;;4991107;28;20018;-76
2022/03/12 01:55:40;;;;;;;10.43;6.10;;;-1.40;96.10;;;;;;4992167;28;20030;-76
2022/03/12 01:58:07;;;;;;;14.50;7.00;;;-1.40;96.20;;;;;;4992322;28;20046;-76
2022/03/12 02:00:43;;;;;;;11.20;6.33;;;-1.40;96.20;;;;;;4991737;28;20027;-76
2022/03/12 02:03:10;;;;;;;10.43;5.73;;;-1.40;96.20;;;;;;4992086;28;20042;-76
2022/03/12 02:05:35;;;;;;;10.63;6.03;;;-1.50;96.40;;;;;;4991972;28;20065;-77
2022/03/12 02:08:02;;;;;;;12.30;6.00;;;-1.40;96.40;;;;;;4973932;28;20482;-76
2022/03/12 02:10:28;;;;;;;10.23;6.70;;;-1.50;96.50;;;;;;4991954;28;20066;-76
2022/03/12 02:12:53;;;;;;;10.57;6.43;;;-1.50;96.60;;;;;;4991936;28;20479;-76
2022/03/12 02:15:20;;;;;;;13.43;6.10;;;-1.60;96.60;;;;;;4992292;28;20033;-76
2022/03/12 02:17:46;;;;;;;11.47;6.20;;;-1.60;96.70;;;;;;4992374;28;20027;-76
2022/03/12 02:20:15;;;;;;;10.70;6.17;;;-1.70;97.70;;;;;;4990468;28;20109;-76
2022/03/12 02:22:41;;;;;;;13.57;7.40;;;-1.70;98.20;;;;;;4992549;28;20030;-76
2022/03/12 02:25:07;;;;;;;13.20;6.80;;;-1.80;98.50;;;;;;4992575;28;20054;-76
2022/03/12 02:27:32;;;;;;;12.20;6.63;;;-1.90;98.80;;;;;;4991757;28;20022;-76
2022/03/12 02:29:59;;;;;;;12.77;7.00;;;-1.90;99.30;;;;;;4991554;28;20045;-76
2022/03/12 02:32:25;;;;;;;15.53;6.87;;;-1.90;99.50;;;;;;4990247;28;20030;-76
2022/03/12 02:34:51;;;;;;;17.90;7.67;;;-1.90;99.60;;;;;;4991843;28;20033;-76
2022/03/12 02:37:33;;;;;;;10.40;6.27;;;-2.00;99.60;;;;;;4992134;28;20080;-77
2022/03/12 02:40:09;;;;;;;12.70;6.73;;;-2.00;99.90;;;;;;4996333;28;20031;-76
2022/03/12 02:42:37;;;;;;;11.90;7.33;;;-1.90;99.90;;;;;;4992248;28;20427;-76
2022/03/12 02:45:07;;;;;;;13.73;6.37;;;-2.00;99.90;;;;;;4991189;28;20128;-76
2022/03/12 02:47:35;;;;;;;12.27;6.13;;;-2.00;99.90;;;;;;4992224;28;20053;-76
2022/03/12 02:50:06;;;;;;;14.47;6.33;;;-2.00;99.90;;;;;;4991591;28;20125;-75
2022/03/12 02:52:40;;;;;;;13.53;6.63;;;-2.00;99.90;;;;;;4991834;28;20023;-76
2022/03/12 02:55:16;;;;;;;16.00;6.20;;;-2.00;99.90;;;;;;4991572;28;20033;-76
2022/03/12 02:57:46;;;;;;;12.73;6.83;;;-2.00;99.90;;;;;;4991814;28;20030;-76
2022/03/12 03:00:13;;;;;;;15.07;6.93;;;-2.00;99.90;;;;;;4991796;28;20468;-76
2022/03/12 03:02:40;;;;;;;11.17;6.07;;;-2.10;99.90;;;;;;4991721;28;20088;-75
2022/03/12 03:05:21;;;;;;;15.67;7.33;;;-2.00;99.90;;;;;;4991274;28;20105;-76
2022/03/12 03:07:51;;;;;;;13.67;6.90;;;-2.00;99.90;;;;;;4973328;28;20046;-76
2022/03/12 03:10:41;;;;;;;11.13;6.63;;;-2.00;99.90;;;;;;4988180;28;20081;-76
2022/03/12 03:13:20;;;;;;;12.30;6.23;;;-2.10;99.90;;;;;;4981520;28;20108;-76
2022/03/12 03:15:59;;;;;;;10.33;6.57;;;-2.00;99.90;;;;;;4990676;28;20382;-76
2022/03/12 03:18:28;;;;;;;12.03;6.53;;;-2.00;99.90;;;;;;4990644;28;20073;-76
2022/03/12 03:20:54;;;;;;;14.20;7.13;;;-2.00;99.90;;;;;;4990534;28;20026;-76
2022/03/12 03:23:24;;;;;;;11.70;7.07;;;-2.10;99.90;;;;;;4990510;28;20034;-76
2022/03/12 03:25:49;;;;;;;11.33;6.83;;;-2.10;99.90;;;;;;4990448;28;20142;-76
2022/03/12 03:28:15;;;;;;;10.73;7.00;;;-2.10;99.90;;;;;;4990310;28;20055;-75
2022/03/12 03:30:41;;;;;;;12.00;6.83;;;-2.10;99.90;;;;;;4990614;28;20034;-75
2022/03/12 03:33:09;;;;;;;12.40;6.77;;;-2.10;99.90;;;;;;4989451;28;20049;-76
2022/03/12 03:35:38;;;;;;;14.30;6.80;;;-2.10;99.90;;;;;;4990418;28;20106;-76
2022/03/12 03:38:04;;;;;;;12.67;6.97;;;-2.10;99.90;;;;;;4988419;28;20037;-76
2022/03/12 03:40:29;;;;;;;10.73;6.30;;;-2.10;99.90;;;;;;4972190;28;20026;-76
2022/03/12 03:42:55;;;;;;;9.73;6.00;;;-2.10;99.90;;;;;;4990297;28;20432;-76
2022/03/12 03:45:24;;;;;;;13.97;6.67;;;-2.10;99.90;;;;;;4990591;28;20026;-76
2022/03/12 03:47:50;;;;;;;14.90;6.73;;;-2.10;99.90;;;;;;4989979;28;20102;-76
2022/03/12 03:50:18;;;;;;;13.43;6.50;;;-2.10;99.90;;;;;;4989843;28;20072;-76
2022/03/12 03:52:45;;;;;;;8.83;5.67;;;-2.10;99.90;;;;;;4990344;28;20137;-76
2022/03/12 03:55:10;;;;;;;12.73;6.70;;;-2.10;99.90;;;;;;4972836;28;20577;-76
2022/03/12 03:57:36;;;;;;;15.07;6.07;;;-2.10;99.90;;;;;;4990235;28;20034;-76
2022/03/12 04:00:05;;;;;;;12.27;6.47;;;-2.10;99.90;;;;;;4973166;28;20038;-76
2022/03/12 04:02:30;;;;;;;13.07;7.23;;;-2.10;99.90;;;;;;4990052;28;20046;-76
2022/03/12 04:04:56;;;;;;;14.47;7.60;;;-2.00;99.90;;;;;;4993704;28;20037;-76
2022/03/12 04:07:22;;;;;;;12.37;7.67;;;-2.00;99.90;;;;;;4994239;28;20734;-76
2022/03/12 04:09:48;;;;;;;13.50;7.53;;;-2.00;99.90;;;;;;4992669;28;20121;-76
2022/03/12 04:12:14;;;;;;;14.23;6.50;;;-2.00;99.90;;;;;;4994054;28;20049;-76
2022/03/12 04:14:40;;;;;;;11.93;7.13;;;-2.00;99.90;;;;;;4993872;28;20364;-76
2022/03/12 04:17:05;;;;;;;11.83;7.43;;;-2.10;99.90;;;;;;4993945;28;20058;-76
2022/03/12 04:19:34;;;;;;;10.80;7.13;;;-2.10;99.90;;;;;;4992542;28;20034;-76
2022/03/12 04:22:00;;;;;;;13.00;7.17;;;-2.10;99.90;;;;;;4993859;28;20031;-76
2022/03/12 04:24:26;;;;;;;13.50;7.37;;;-2.10;99.90;;;;;;4993728;28;20068;-76
2022/03/12 04:26:52;;;;;;;13.87;6.67;;;-2.10;99.90;;;;;;4993605;28;20026;-76
2022/03/12 04:29:18;;;;;;;13.63;7.07;;;-2.10;99.90;;;;;;4993651;28;20471;-76
2022/03/12 04:31:48;;;;;;;15.60;6.53;;;-2.00;99.90;;;;;;4993719;28;20085;-76
2022/03/12 04:34:14;;;;;;;10.60;6.50;;;-2.00;99.90;;;;;;4976156;28;20030;-76
2022/03/12 04:36:44;;;;;;;11.27;6.57;;;-1.90;99.90;;;;;;4993439;28;20035;-76
2022/03/12 04:39:11;;;;;;;12.20;6.70;;;-1.90;99.90;;;;;;4993396;28;20598;-76
2022/03/12 04:41:39;;;;;;;15.47;6.53;;;-1.90;99.90;;;;;;4993576;28;20038;-76
2022/03/12 04:44:08;;;;;;;12.23;7.20;;;-1.90;99.90;;;;;;4993236;28;20456;-76
2022/03/12 04:46:34;;;;;;;14.80;6.67;;;-2.00;99.90;;;;;;4993703;28;20054;-76
2022/03/12 04:49:01;;;;;;;14.67;6.90;;;-2.00;99.90;;;;;;4993405;28;20034;-76
2022/03/12 04:51:28;;;;;;;13.63;7.60;;;-2.10;99.90;;;;;;4993476;28;20061;-76
2022/03/12 04:54:00;;;;;;;12.63;6.90;;;-2.10;99.90;;;;;;4993386;28;20030;-76
2022/03/12 04:56:27;;;;;;;18.50;8.90;;;-2.10;99.90;;;;;;4993509;28;20018;-76
2022/03/12 04:58:53;;;;;;;15.83;8.13;;;-2.20;99.90;;;;;;4993467;28;20117;-76
2022/03/12 05:01:20;;;;;;;16.87;8.00;;;-2.20;99.90;;;;;;4993211;28;20109;-76
2022/03/12 05:03:46;;;;;;;12.20;6.97;;;-2.20;99.90;;;;;;4993088;28;20026;-76
2022/03/12 05:06:13;;;;;;;13.67;7.73;;;-2.30;99.90;;;;;;4975565;28;20049;-76
2022/03/12 05:08:39;;;;;;;14.73;8.30;;;-2.30;99.90;;;;;;4993257;28;20104;-76
2022/03/12 05:11:05;;;;;;;12.10;7.63;;;-2.30;99.90;;;;;;4993616;28;20041;-74
2022/03/12 05:13:32;;;;;;;13.77;7.60;;;-2.40;99.90;;;;;;4993490;28;20026;-74
2022/03/12 05:16:03;;;;;;;14.30;7.33;;;-2.40;99.90;;;;;;4991556;28;20383;-74
2022/03/12 05:18:30;;;;;;;13.83;7.47;;;-2.40;99.90;;;;;;4992991;28;20096;-74
2022/03/12 05:20:56;;;;;;;15.93;8.07;;;-2.40;99.90;;;;;;4992310;28;20108;-74
2022/03/12 05:23:22;;;;;;;14.30;8.40;;;-2.50;99.90;;;;;;4992759;28;20089;-73
2022/03/12 05:25:49;;;;;;;13.77;7.43;;;-2.50;99.90;;;;;;4991401;28;20066;-74
2022/03/12 05:28:26;;;;;;;14.80;8.60;;;-2.50;99.90;;;;;;4992992;28;20391;-75
2022/03/12 05:30:56;;;;;;;18.20;8.77;;;-2.60;99.90;;;;;;4992955;28;20077;-75
2022/03/12 05:33:22;;;;;;;11.57;7.77;;;-2.60;99.90;;;;;;4993510;28;20030;-74
2022/03/12 05:35:51;;;;;;;14.83;7.47;;;-2.60;99.90;;;;;;4993334;28;20483;-77
2022/03/12 05:38:17;;;;;;;14.37;8.00;;;-2.60;99.90;;;;;;4992808;28;20126;-75
2022/03/12 05:40:43;;;;;;;19.87;8.77;;;-2.60;99.90;;;;;;4992612;28;20057;-75
2022/03/12 05:43:13;;;;;;;19.67;8.50;;;-2.60;99.90;;;;;;4992377;28;20082;-75
2022/03/12 05:45:39;;;;;;;16.90;8.63;;;-2.60;99.90;;;;;;4992399;28;20121;-75
2022/03/12 05:48:09;;;;;;;17.27;7.90;;;-2.60;99.90;;;;;;4975344;28;20428;-71
2022/03/12 05:50:36;;;;;;;16.60;7.20;;;-2.60;99.90;;;;;;4995443;28;20049;-71
2022/03/12 05:53:01;;;;;;;14.30;7.50;;;-2.60;99.90;;;;;;4992591;28;20069;-74
2022/03/12 05:55:27;;;;;;;13.70;8.30;;;-2.50;99.90;;;;;;4993139;28;20042;-73
2022/03/12 05:57:53;;;;;;;14.47;7.87;;;-2.50;99.90;;;;;;4992636;28;20078;-73
2022/03/12 06:00:19;;;;;;;14.17;7.80;;;-2.50;99.90;;;;;;4992654;28;20471;-74
2022/03/12 06:02:52;;;;;;;13.27;8.20;;;-2.50;99.90;;;;;;4992710;28;20034;-73
2022/03/12 06:05:27;;;;;;;15.17;7.97;;;-2.50;99.90;;;;;;4975096;28;20042;-74
2022/03/12 06:07:53;;;;;;;;;;;-2.40;99.90;;;;;;4992945;28;20050;-74
2022/03/12 06:10:20;;;;;;;15.33;8.07;;;-2.40;99.90;;;;;;4992721;28;19916;-74
2022/03/12 06:12:46;;;;;;;14.03;7.73;;;-2.40;99.90;;;;;;4992390;28;20152;-74
2022/03/12 06:15:17;;;;;;;16.23;8.40;;;-2.40;99.90;;;;;;4992581;28;20038;-74
2022/03/12 06:17:45;;;;;;;18.37;8.93;;;-2.30;99.90;;;;;;4991950;28;20395;-74
2022/03/12 06:20:12;;;;;;;19.03;8.30;;;-2.30;99.90;;;;;;4992548;28;20033;-74
2022/03/12 06:22:39;;;;;;;18.37;9.07;;;-2.30;99.90;;;;;;4974679;28;20455;-74
2022/03/12 06:25:06;;;;;;;14.97;8.60;;;-2.20;99.90;;;;;;4992384;28;20065;-74
2022/03/12 06:27:32;;;;;;;15.83;8.07;;;-2.10;99.90;;;;;;4992079;28;20046;-74
2022/03/12 06:29:58;;;;;;;14.23;7.93;;;-2.10;99.90;;;;;;4991055;28;20030;-74
2022/03/12 06:32:24;;;;;;;14.33;7.83;;;-2.00;99.90;;;;;;4990612;28;20023;-74
2022/03/12 06:34:49;;;;;;;14.30;8.33;;;-1.90;99.90;;;;;;4991894;28;20026;-74
2022/03/12 06:37:15;;;;;;;18.73;9.17;;;-1.90;99.90;;;;;;4991042;28;20034;-74
2022/03/12 06:39:41;;;;;;;16.47;7.90;;;-1.80;99.90;;;;;;4991932;28;20503;-74
2022/03/12 06:42:07;;;;;;;13.90;8.00;;;-1.80;99.90;;;;;;4991591;28;20034;-74
2022/03/12 06:44:33;;;;;;;15.27;8.00;;;-1.80;99.90;;;;;;4991654;28;20026;-74
2022/03/12 06:47:01;;;;;;;15.27;7.97;;;-1.60;99.90;;;;;;4991893;28;20061;-74
2022/03/12 06:49:27;;;;;;;16.63;7.90;;;-1.50;99.90;;;;;;4992227;28;20085;-74
2022/03/12 06:51:53;;;;;;;14.23;8.40;;;-1.40;99.90;;;;;;4991765;28;20690;-74
2022/03/12 06:54:19;;;;;;;14.33;7.87;;;-1.40;99.90;;;;;;4991818;28;20061;-74
2022/03/12 06:56:45;;;;;;;13.37;7.77;;;-1.30;99.90;;;;;;4990185;28;20452;-74
2022/03/12 06:59:12;;;;;;;15.93;7.57;;;-1.20;99.90;;;;;;4991337;28;20474;-74
2022/03/12 07:01:37;;;;;;;14.37;7.13;;;-1.00;99.90;;;;;;4990477;28;20077;-74
2022/03/12 07:04:03;;;;;;;14.97;7.97;;;-0.90;99.90;;;;;;4991151;28;20054;-74
2022/03/12 07:06:28;;;;;;;12.77;7.83;;;-0.70;99.90;;;;;;4991648;28;20069;-75
2022/03/12 07:08:54;;;;;;;17.90;9.67;;;-0.60;99.90;;;;;;4991214;28;20383;-74
2022/03/12 07:11:20;;;;;;;17.07;8.83;;;-0.50;99.90;;;;;;4991505;28;20097;-75
2022/03/12 07:13:46;;;;;;;13.13;8.00;;;-0.40;99.90;;;;;;4989257;28;20049;-74
2022/03/12 07:16:11;;;;;;;14.50;8.13;;;-0.40;99.90;;;;;;4990958;28;20037;-74
2022/03/12 07:18:38;;;;;;;18.20;8.17;;;-0.40;99.90;;;;;;4991326;28;20100;-74
2022/03/12 07:21:06;;;;;;;15.17;7.70;;;-0.40;99.90;;;;;;4988218;28;20105;-72
2022/03/12 07:23:31;;;;;;;15.90;8.47;;;-0.40;99.90;;;;;;4990487;28;20118;-76
2022/03/12 07:25:57;;;;;;;11.83;7.27;;;-0.40;99.90;;;;;;4990637;28;20117;-77
2022/03/12 07:28:22;;;;;;;14.57;8.90;;;-0.20;99.90;;;;;;4985814;28;20026;-78
2022/03/12 07:30:48;;;;;;;13.57;7.13;;;-0.20;99.90;;;;;;4990716;28;20494;-77
2022/03/12 07:33:14;;;;;;;11.37;7.50;;;0.00;99.90;;;;;;4991029;28;20041;-75
2022/03/12 07:35:40;;;;;;;15.00;7.83;;;0.00;99.90;;;;;;4991370;28;20053;-75
2022/03/12 07:38:06;;;;;;;14.37;8.37;;;0.10;99.90;;;;;;4991741;28;20495;-76
2022/03/12 07:40:31;;;;;;;13.73;8.37;;;0.20;99.90;;;;;;4995379;28;20824;-75
2022/03/12 07:42:57;;;;;;;17.10;8.43;;;0.30;99.90;;;;;;4994903;28;20108;-75
2022/03/12 07:45:23;;;;;;;15.13;8.37;;;0.40;99.90;;;;;;4977799;28;20026;-75
2022/03/12 07:47:50;;;;;;;16.27;8.63;;;0.50;99.90;;;;;;4994463;28;20026;-75
2022/03/12 07:50:16;;;;;;;17.63;8.70;;;0.60;99.90;;;;;;4989698;28;20063;-75
2022/03/12 07:52:42;;;;;;;17.70;9.43;;;0.80;99.90;;;;;;4983840;28;20409;-75
2022/03/12 07:55:09;;;;;;;13.63;8.20;;;0.90;99.90;;;;;;4994600;28;20690;-75
2022/03/12 07:57:36;;;;;;;15.03;8.17;;;1.10;99.90;;;;;;4994375;28;20030;-75
2022/03/12 08:00:04;;;;;;;16.83;8.60;;;1.20;99.90;;;;;;4994447;28;20076;-74
2022/03/12 08:02:29;;;;;;;18.47;8.43;;;1.40;99.90;;;;;;4977093;28;20120;-75
2022/03/12 08:04:55;;;;;;;16.67;8.10;;;1.40;99.90;;;;;;4976674;28;20077;-75
2022/03/12 08:07:21;;;;;;;19.80;8.90;;;1.50;99.90;;;;;;4994289;28;20053;-74
2022/03/12 08:09:47;;;;;;;19.57;8.60;;;1.50;99.90;;;;;;4993987;28;20026;-78
2022/03/12 08:12:15;;;;;;;15.70;9.03;;;1.60;99.90;;;;;;4984703;28;20375;-73
2022/03/12 08:14:42;;;;;;;14.50;8.73;;;1.70;99.90;;;;;;4957810;28;20030;-73
2022/03/12 08:17:08;;;;;;;17.83;8.97;;;1.80;99.90;;;;;;4969411;28;20036;-73
2022/03/12 08:19:35;;;;;;;16.73;9.73;;;2.00;99.90;;;;;;4990656;28;20027;-73
2022/03/12 08:22:03;;;;;;;12.97;8.57;;;2.10;99.90;;;;;;5012429;28;20029;-73
2022/03/12 08:24:29;;;;;;;15.50;8.73;;;2.20;99.90;;;;;;4994201;28;20483;-73
2022/03/12 08:26:55;;;;;;;17.20;8.93;;;2.50;99.90;;;;;;5004773;28;20109;-73
2022/03/12 08:29:21;;;;;;;18.10;9.13;;;2.70;99.90;;;;;;4994532;28;20097;-73
2022/03/12 08:31:49;;;;;;;16.20;8.83;;;2.70;99.90;;;;;;4992269;28;20394;-73
2022/03/12 08:34:14;;;;;;;14.53;9.73;;;2.80;99.90;;;;;;4991904;28;20076;-73
2022/03/12 08:36:42;;;;;;;15.07;9.23;;;3.00;99.90;;;;;;4990090;28;20034;-73
2022/03/12 08:39:08;;;;;;;17.63;9.60;;;3.30;99.90;;;;;;4991162;28;20762;-74
2022/03/12 08:41:34;;;;;;;15.67;9.30;;;3.40;99.50;;;;;;4975174;28;20113;-73
2022/03/12 08:44:00;;;;;;;17.73;9.70;;;3.50;98.80;;;;;;4988596;28;20157;-73
2022/03/12 08:46:26;;;;;;;17.80;11.27;;;3.70;99.10;;;;;;4991663;28;20511;-73
2022/03/12 08:48:52;;;;;;;16.20;9.43;;;3.70;98.70;;;;;;4991124;28;20037;-73
2022/03/12 08:51:19;;;;;;;17.60;9.37;;;3.90;98.70;;;;;;4987374;28;20030;-73
2022/03/12 08:53:45;;;;;;;15.43;10.53;;;4.00;98.60;;;;;;4990659;28;20037;-71
2022/03/12 08:56:11;;;;;;;18.97;10.07;;;4.10;98.60;;;;;;4990577;28;20022;-72
2022/03/12 08:58:37;;;;;;;16.97;9.70;;;4.60;98.00;;;;;;4990095;28;20037;-72
2022/03/12 09:01:06;;;;;;;16.90;9.60;;;4.90;97.20;;;;;;4990578;28;20105;-72
2022/03/12 09:03:33;;;;;;;15.33;9.60;;;5.00;96.90;;;;;;4987889;28;20034;-72
2022/03/12 09:05:59;;;;;;;14.27;9.87;;;5.10;95.90;;;;;;4973098;28;20113;-72
2022/03/12 09:08:25;;;;;;;20.63;9.67;;;5.20;96.00;;;;;;4990200;28;20161;-77
2022/03/12 09:10:50;;;;;;;13.77;9.40;;;5.30;95.80;;;;;;4990224;28;20804;-77
2022/03/12 09:13:17;;;;;;;15.70;10.00;;;5.40;96.00;;;;;;4973017;28;20030;-77
2022/03/12 09:15:43;;;;;;;16.40;10.47;;;5.50;95.20;;;;;;4988706;28;20066;-77
2022/03/12 09:18:10;;;;;;;16.20;9.40;;;5.40;95.20;;;;;;4977371;28;20066;-73
2022/03/12 09:20:47;;;;;;;15.83;9.70;;;5.50;94.70;;;;;;4970968;28;20059;-74
2022/03/12 09:23:17;;;;;;;14.97;9.60;;;5.60;95.10;;;;;;4990313;28;20360;-74
2022/03/12 09:25:43;;;;;;;14.90;9.53;;;6.80;92.80;;;;;;5009875;28;20064;-75
2022/03/12 09:28:10;;;;;;;15.27;9.90;;;6.80;92.40;;;;;;5002309;28;20019;-75
2022/03/12 09:30:36;;;;;;;15.97;10.23;;;7.20;91.50;;;;;;4991396;28;20105;-75
2022/03/12 09:33:03;;;;;;;15.03;9.67;;;7.10;91.70;;;;;;4991478;28;20098;-75
2022/03/12 09:35:29;;;;;;;16.57;9.80;;;7.50;90.30;;;;;;4987957;28;20058;-75
2022/03/12 09:37:55;;;;;;;17.13;10.73;;;7.70;89.40;;;;;;4975470;28;20475;-75
2022/03/12 09:40:22;;;;;;;16.47;9.50;;;7.80;88.70;;;;;;4981836;28;20037;-74
2022/03/12 09:42:48;;;;;;;17.30;9.77;;;7.70;89.00;;;;;;4983467;28;20479;-74
2022/03/12 09:45:14;;;;;;;12.87;9.07;;;8.00;88.10;;;;;;4990533;28;20033;-74
2022/03/12 09:47:40;;;;;;;19.53;9.83;;;8.10;87.20;;;;;;4993025;28;20050;-76
2022/03/12 09:50:06;;;;;;;18.00;10.10;;;8.20;85.90;;;;;;4992799;28;20027;-75
2022/03/12 09:52:32;;;;;;;16.03;9.20;;;8.20;84.80;;;;;;4991607;28;20563;-75
2022/03/12 09:54:58;;;;;;;14.60;9.20;;;8.50;84.10;;;;;;4992671;28;20108;-75
2022/03/12 09:57:24;;;;;;;15.67;9.13;;;8.70;83.20;;;;;;4984323;28;20037;-75
2022/03/12 09:59:49;;;;;;;18.27;9.70;;;8.80;82.20;;;;;;4987685;28;20486;-74
2022/03/12 10:02:15;;;;;;;19.20;9.97;;;8.60;82.40;;;;;;5005421;28;20030;-74
2022/03/12 10:04:40;;;;;;;15.07;9.23;;;8.90;83.00;;;;;;4992345;28;20026;-74
2022/03/12 10:07:08;;;;;;;15.70;8.83;;;9.00;81.60;;;;;;4974612;28;20023;-74
2022/03/12 10:09:34;;;;;;;15.20;9.50;;;9.00;80.30;;;;;;4974653;28;20039;-72
2022/03/12 10:12:01;;;;;;;14.30;9.13;;;9.20;79.90;;;;;;4992394;28;20096;-71
2022/03/12 10:14:27;;;;;;;43.30;11.03;;;9.30;79.20;;;;;;4992281;28;20118;-75
2022/03/12 10:16:53;;;;;;;17.27;9.33;;;9.40;80.30;;;;;;4991719;28;20057;-75
2022/03/12 10:19:20;;;;;;;18.93;9.87;;;9.30;80.80;;;;;;4992159;28;20494;-75
2022/03/12 10:21:47;;;;;;;20.63;9.77;;;9.60;79.50;;;;;;4991436;28;20027;-74
2022/03/12 10:24:13;;;;;;;18.20;9.70;;;10.10;78.80;;;;;;4991614;28;20038;-74
2022/03/12 10:26:40;;;;;;;18.80;10.07;;;10.30;77.40;;;;;;4990695;28;20438;-74
2022/03/12 10:29:06;;;;;;;16.50;10.30;;;10.70;75.20;;;;;;4991294;28;20015;-74
2022/03/12 10:31:34;;;;;;;21.73;10.40;;;10.60;76.20;;;;;;4991027;28;20037;-74
2022/03/12 10:34:21;;;;;;;17.70;9.43;;;10.60;75.90;;;;;;4992085;28;20588;-74
2022/03/12 10:36:55;;;;;;;16.30;10.10;;;10.90;74.50;;;;;;4972500;28;20030;-74
2022/03/12 10:39:32;;;;;;;19.83;10.87;;;10.90;73.80;;;;;;4972317;28;20125;-74
2022/03/12 10:42:07;;;;;;;20.83;10.73;;;11.10;75.20;;;;;;4972134;28;20153;-74
2022/03/12 10:44:40;;;;;;;14.93;10.57;;;11.40;73.60;;;;;;4974048;28;20030;-74
2022/03/12 10:47:25;;;;;;;15.63;10.20;;;11.60;71.90;;;;;;4991745;28;20031;-74
2022/03/12 10:50:11;;;;;;;19.67;10.43;;;11.80;72.20;;;;;;4991656;28;20019;-74
2022/03/12 10:52:44;;;;;;;25.33;11.27;;;11.90;69.50;;;;;;4991677;28;20034;-74
2022/03/12 10:55:32;;;;;;;22.17;11.17;;;12.00;70.00;;;;;;4991567;28;20032;-74
2022/03/12 10:58:26;;;;;;;20.67;11.43;;;12.00;69.10;;;;;;4991611;28;20113;-74
2022/03/12 11:00:54;;;;;;;15.82;11.10;;;12.10;69.00;;;;;;4988013;28;20550;-74
2022/03/12 11:03:21;;;;;;;23.10;11.53;;;12.30;68.70;;;;;;4991428;28;20041;-74
2022/03/12 11:05:49;;;;;;;25.05;11.10;;;12.40;67.80;;;;;;4973568;28;20034;-74
2022/03/12 11:08:23;;;;;;;15.70;10.93;;;12.20;66.90;;;;;;4990140;28;20491;-74
2022/03/12 11:10:59;;;;;;;20.37;12.17;;;12.00;68.10;;;;;;4991100;28;20022;-74
2022/03/12 11:13:26;;;;;;;19.02;10.98;;;12.20;68.90;;;;;;4990874;28;20027;-74
2022/03/12 11:16:06;;;;;;;18.70;11.70;;;12.10;68.00;;;;;;4973510;28;20101;-75
2022/03/12 11:18:33;;;;;;;19.10;11.70;;;12.10;67.60;;;;;;4990962;28;20022;-74
2022/03/12 11:20:59;;;;;;;18.20;11.57;;;12.20;67.10;;;;;;4991208;28;20030;-74
2022/03/12 11:23:27;;;;;;;24.03;12.03;;;12.20;68.20;;;;;;4991606;28;20036;-74
2022/03/12 11:25:58;;;;;;;22.15;12.25;;;12.30;68.10;;;;;;4973455;28;20026;-74
2022/03/12 11:28:25;;;;;;;31.38;11.80;;;12.10;68.60;;;;;;4991197;28;20713;-74
2022/03/12 11:30:51;;;;;;;20.80;12.40;;;12.20;68.60;;;;;;4990713;28;20026;-74
2022/03/12 11:33:18;;;;;;;16.25;12.07;;;12.50;66.50;;;;;;4990420;28;20065;-74
2022/03/12 11:35:45;;;;;;;26.45;11.45;;;12.60;67.90;;;;;;4988946;28;20027;-74
2022/03/12 11:38:22;;;;;;;22.88;11.73;;;12.70;68.50;;;;;;4989517;28;20044;-74
2022/03/12 11:41:11;;;;;;;25.60;11.60;;;13.10;67.20;;;;;;4987043;28;20404;-74
2022/03/12 11:43:40;;;;;;;20.83;11.60;;;13.00;65.40;;;;;;4971081;28;20034;-76
2022/03/12 11:46:09;;;;;;;18.70;12.05;;;13.10;67.70;;;;;;4971489;28;20031;-75
2022/03/12 11:48:37;;;;;;;18.25;11.07;;;13.10;65.20;;;;;;4971231;28;20019;-74
2022/03/12 11:51:16;;;;;;;33.30;13.10;;;13.10;66.00;;;;;;4981676;28;20105;-74
2022/03/12 11:53:41;;;;;;;22.65;13.82;;;13.00;66.70;;;;;;4973185;28;20080;-75
2022/03/12 11:56:07;;;;;;;21.65;12.48;;;13.00;66.80;;;;;;4972826;28;20026;-75
2022/03/12 11:58:34;;;;;;;19.67;12.82;;;13.30;65.30;;;;;;4990493;28;20049;-75
2022/03/12 12:00:59;;;;;;;36.65;13.77;;;13.50;63.30;;;;;;4982012;28;20031;-75
2022/03/12 12:03:25;;;;;;;21.27;12.07;;;13.70;65.10;;;;;;4973312;28;20038;-75
2022/03/12 12:05:56;;;;;;;17.92;11.93;;;13.70;65.70;;;;;;4990653;28;20795;-74
2022/03/12 12:08:22;;;;;;;33.83;13.63;;;14.00;63.60;;;;;;4990173;28;20049;-75
2022/03/12 12:10:48;;;;;;;18.05;12.95;;;14.00;64.50;;;;;;4989715;28;20081;-75
2022/03/12 12:13:13;;;;;;;23.10;12.38;;;14.00;63.00;;;;;;4990146;28;20463;-74
2022/03/12 12:15:41;;;;;;;23.15;13.77;;;14.00;65.10;;;;;;4989084;28;20048;-75
2022/03/12 12:18:10;;;;;;;20.92;12.35;;;13.90;64.40;;;;;;4971257;28;20479;-75
2022/03/12 12:20:36;;;;;;;18.83;12.68;;;14.30;62.40;;;;;;4972442;28;20039;-75
2022/03/12 12:23:03;;;;;;;25.55;13.60;;;14.30;61.90;;;;;;4987712;28;20088;-78
2022/03/12 12:25:34;;;;;;;19.30;12.82;;;14.20;62.50;;;;;;4992434;28;20037;-78
2022/03/12 12:28:01;;;;;;;20.38;12.65;;;14.20;62.90;;;;;;4993820;28;20088;-78
2022/03/12 12:30:38;;;;;;;24.08;15.07;;;14.20;62.20;;;;;;4976581;28;20176;-78
2022/03/12 12:33:17;;;;;;;20.77;13.68;;;14.10;61.60;;;;;;4975936;28;20030;-78
2022/03/12 12:35:45;;;;;;;21.52;15.45;;;14.00;62.50;;;;;;4989757;28;20026;-78
2022/03/12 12:38:12;;;;;;;21.77;14.38;;;14.10;61.80;;;;;;4991498;28;20458;-77
2022/03/12 12:40:47;;;;;;;18.15;13.48;;;14.70;61.00;;;;;;4990829;28;20034;-77